Time;durP1;ratioP1;P1;durP2;ratioP2;P2;SDS_P1;SDS_P2;PMS_P1;PMS_P2;Temp;Humidity;BMP_temperature;BMP_pressure;BME280_temperature;BME280_humidity;BME280_pressure;Samples;Min_cycle;Max_cycle;Signal;HPM_P1;HPM_P2
2023/12/26 00:01:35;;;;;;;;;;;18.00;60.10;;;;;;7393421;19;3212;-73
2023/12/26 00:04:01;;;;;;;;;;;17.90;60.10;;;;;;7396593;19;2986;-73
2023/12/26 00:06:26;;;;;;;;;;;17.90;60.20;;;;;;7394108;19;3093;-73
2023/12/26 00:08:51;;;;;;;;;;;17.90;60.10;;;;;;7391339;19;3207;-73
2023/12/26 00:11:17;;;;;;;;;;;17.90;60.30;;;;;;7394512;19;3403;-73
2023/12/26 00:13:42;;;;;;;;;;;17.80;60.30;;;;;;7396548;19;3246;-73
2023/12/26 00:16:08;;;;;;;;;;;17.80;60.50;;;;;;7394914;19;1634;-73
2023/12/26 00:18:33;;;;;;;;;;;17.80;60.50;;;;;;7394929;19;3508;-73
2023/12/26 00:20:59;;;;;;;;;;;17.80;60.50;;;;;;7389358;19;4254;-73
2023/12/26 00:23:24;;;;;;;;;;;17.70;60.40;;;;;;7392041;19;3101;-73
2023/12/26 00:25:49;;;;;;;;;;;17.70;60.60;;;;;;7393117;19;3387;-73
2023/12/26 00:28:17;;;;;;;;;;;17.70;60.70;;;;;;7397048;19;2921;-73
2023/12/26 00:30:43;;;;;;;;;;;17.70;60.60;;;;;;7393485;19;2137;-73
2023/12/26 00:33:08;;;;;;;;;;;17.70;60.70;;;;;;7395780;19;3484;-72
2023/12/26 00:35:33;;;;;;;;;;;17.70;60.80;;;;;;7395002;19;4253;-73
2023/12/26 00:38:01;;;;;;;;;;;17.70;60.80;;;;;;7393087;19;5846;-73
2023/12/26 00:40:26;;;;;;;;;;;17.70;60.90;;;;;;7389197;19;3255;-73
2023/12/26 00:42:52;;;;;;;;;;;17.70;60.80;;;;;;7393269;19;2950;-73
2023/12/26 00:45:18;;;;;;;;;;;17.60;60.90;;;;;;7394993;19;2000;-73
2023/12/26 00:47:43;;;;;;;;;;;17.60;61.00;;;;;;7392396;19;3466;-73
2023/12/26 00:50:11;;;;;;;;;;;17.60;61.20;;;;;;7396180;19;3233;-73
2023/12/26 00:52:40;;;;;;;;;;;17.60;61.20;;;;;;7387859;19;3796;-73
2023/12/26 00:55:06;;;;;;;;;;;17.60;61.30;;;;;;7391715;19;3007;-73
2023/12/26 00:57:33;;;;;;;;;;;17.50;61.40;;;;;;7390813;19;1973;-73
2023/12/26 00:59:58;;;;;;;;;;;17.50;61.50;;;;;;7393897;19;2074;-73
2023/12/26 01:02:25;;;;;;;;;;;17.50;61.40;;;;;;7393420;19;4471;-73
2023/12/26 01:04:51;;;;;;;;;;;17.50;61.40;;;;;;7394711;19;1553;-73
2023/12/26 01:07:16;;;;;;;;;;;17.40;61.70;;;;;;7392126;19;2871;-73
2023/12/26 01:09:41;;;;;;;;;;;17.40;61.50;;;;;;7390922;19;3046;-72
2023/12/26 01:12:07;;;;;;;;;;;17.40;61.70;;;;;;7394557;19;3965;-72
2023/12/26 01:14:32;;;;;;;;;;;17.40;61.60;;;;;;7397138;19;3006;-73
2023/12/26 01:16:58;;;;;;;;;;;17.40;61.80;;;;;;7393219;19;2997;-73
2023/12/26 01:19:23;;;;;;;;;;;17.40;61.80;;;;;;7391898;19;4263;-73
2023/12/26 01:21:49;;;;;;;;;;;17.40;61.70;;;;;;7390570;19;4158;-72
2023/12/26 01:24:14;;;;;;;;;;;17.40;61.70;;;;;;7390204;19;3075;-73
2023/12/26 01:26:39;;;;;;;;;;;17.40;61.80;;;;;;7392774;19;1663;-73
2023/12/26 01:29:07;;;;;;;;;;;17.40;61.80;;;;;;7391666;19;2213;-73
2023/12/26 01:31:35;;;;;;;;;;;17.30;61.70;;;;;;7393416;19;3034;-73
2023/12/26 01:34:01;;;;;;;;;;;17.40;62.70;;;;;;7392547;19;1989;-73
2023/12/26 01:36:27;;;;;;;;;;;17.30;61.90;;;;;;7395794;19;1957;-73
2023/12/26 01:38:52;;;;;;;;;;;17.30;61.90;;;;;;7390647;19;3993;-73
2023/12/26 01:41:18;;;;;;;;;;;17.30;62.00;;;;;;7393343;19;1854;-73
2023/12/26 01:43:43;;;;;;;;;;;17.30;62.10;;;;;;7395289;19;4185;-73
2023/12/26 01:46:09;;;;;;;;;;;17.20;62.20;;;;;;7397613;19;4290;-72
2023/12/26 01:48:34;;;;;;;;;;;17.20;62.20;;;;;;7399391;19;3142;-73
2023/12/26 01:51:02;;;;;;;;;;;17.20;62.30;;;;;;7400329;19;1914;-73
2023/12/26 01:53:28;;;;;;;;;;;17.20;62.40;;;;;;7396307;19;4285;-73
2023/12/26 01:55:53;;;;;;;;;;;17.20;62.30;;;;;;7398564;19;2128;-73
2023/12/26 01:58:19;;;;;;;;;;;17.20;62.40;;;;;;7397727;19;2267;-72
2023/12/26 02:00:44;;;;;;;;;;;17.20;62.40;;;;;;7398139;19;3323;-73
2023/12/26 02:03:09;;;;;;;;;;;17.20;62.60;;;;;;7400457;19;1903;-73
2023/12/26 02:05:35;;;;;;;;;;;17.10;62.50;;;;;;7398418;19;2033;-72
2023/12/26 02:08:01;;;;;;;;;;;17.10;62.50;;;;;;7392213;19;4227;-73
2023/12/26 02:10:27;;;;;;;;;;;17.10;62.30;;;;;;7397118;19;2962;-73
2023/12/26 02:12:52;;;;;;;;;;;17.20;62.40;;;;;;7398892;19;2087;-72
2023/12/26 02:15:18;;;;;;;;;;;17.20;62.20;;;;;;7394311;19;4033;-72
2023/12/26 02:17:43;;;;;;;;;;;17.30;61.90;;;;;;7401487;19;1693;-73
2023/12/26 02:20:09;;;;;;;;;;;17.40;61.70;;;;;;7393550;19;4286;-72
2023/12/26 02:22:35;;;;;;;;;;;17.50;61.40;;;;;;7396978;19;2884;-73
2023/12/26 02:25:01;;;;;;;;;;;17.60;62.00;;;;;;7401906;19;2105;-73
2023/12/26 02:27:29;;;;;;;;;;;17.90;60.50;;;;;;7396521;19;1914;-73
2023/12/26 02:29:54;;;;;;;;;;;18.20;59.80;;;;;;7396458;19;2477;-73
2023/12/26 02:32:21;;;;;;;;;;;18.50;59.30;;;;;;7398627;19;3762;-73
2023/12/26 02:34:46;;;;;;;;;;;18.70;58.70;;;;;;7399168;19;1846;-73
2023/12/26 02:37:12;;;;;;;;;;;18.90;58.10;;;;;;7397343;19;2934;-73
2023/12/26 02:39:39;;;;;;;;;;;19.10;57.80;;;;;;7397068;19;3996;-73
2023/12/26 02:42:05;;;;;;;;;;;19.30;57.40;;;;;;7395493;19;1997;-73
2023/12/26 02:44:30;;;;;;;;;;;19.50;57.00;;;;;;7397502;19;3453;-73
2023/12/26 02:46:56;;;;;;;;;;;19.40;56.70;;;;;;7398659;19;3787;-73
2023/12/26 02:49:21;;;;;;;;;;;19.60;56.80;;;;;;7398979;19;3235;-73
2023/12/26 02:51:47;;;;;;;;;;;19.60;56.70;;;;;;7396635;19;4490;-73
2023/12/26 02:54:12;;;;;;;;;;;19.70;56.60;;;;;;7398201;19;3415;-73
2023/12/26 02:56:37;;;;;;;;;;;19.70;56.50;;;;;;7396515;19;3183;-73
2023/12/26 02:59:03;;;;;;;;;;;19.70;56.40;;;;;;7397963;19;3017;-72
2023/12/26 03:01:28;;;;;;;;;;;19.70;56.50;;;;;;7396394;19;1850;-73
2023/12/26 03:03:54;;;;;;;;;;;19.80;56.40;;;;;;7398084;19;1329;-73
2023/12/26 03:06:19;;;;;;;;;;;19.80;56.40;;;;;;7395591;19;2975;-73
2023/12/26 03:08:45;;;;;;;;;;;19.80;56.40;;;;;;7376038;19;2344;-73
2023/12/26 03:11:10;;;;;;;;;;;19.80;56.40;;;;;;7386394;19;2913;-73
2023/12/26 03:13:35;;;;;;;;;;;19.80;56.40;;;;;;7373276;19;4610;-73
2023/12/26 03:16:01;;;;;;;;;;;19.80;56.40;;;;;;7394329;19;2623;-73
2023/12/26 03:18:26;;;;;;;;;;;19.80;56.40;;;;;;7399607;19;3109;-73
2023/12/26 03:20:52;;;;;;;;;;;19.80;56.60;;;;;;7392275;19;4165;-73
2023/12/26 03:23:17;;;;;;;;;;;19.70;56.70;;;;;;7397183;19;2625;-73
2023/12/26 03:25:43;;;;;;;;;;;19.60;56.80;;;;;;7394868;19;2575;-73
2023/12/26 03:28:08;;;;;;;;;;;19.60;57.00;;;;;;7393698;19;3537;-73
2023/12/26 03:30:34;;;;;;;;;;;19.50;57.00;;;;;;7398876;19;1593;-73
2023/12/26 03:32:59;;;;;;;;;;;19.40;57.20;;;;;;7395549;19;1991;-73
2023/12/26 03:35:25;;;;;;;;;;;19.20;57.30;;;;;;7394662;19;4333;-73
2023/12/26 03:37:51;;;;;;;;;;;19.10;57.70;;;;;;7397728;19;3193;-73
2023/12/26 03:40:16;;;;;;;;;;;19.10;57.60;;;;;;7396989;19;4454;-73
2023/12/26 03:42:42;;;;;;;;;;;19.20;57.60;;;;;;7394059;19;5327;-73
2023/12/26 03:45:08;;;;;;;;;;;19.20;57.40;;;;;;7396569;19;2770;-73
2023/12/26 03:47:33;;;;;;;;;;;19.20;57.90;;;;;;7394299;19;1715;-73
2023/12/26 03:50:00;;;;;;;;;;;19.30;57.20;;;;;;7394220;19;3829;-74
2023/12/26 03:52:25;;;;;;;;;;;19.40;57.20;;;;;;7396339;19;1644;-73
2023/12/26 03:54:51;;;;;;;;;;;19.30;57.20;;;;;;7398258;19;1157;-74
2023/12/26 03:57:17;;;;;;;;;;;19.30;57.10;;;;;;7392848;19;3189;-73
2023/12/26 03:59:42;;;;;;;;;;;19.30;57.10;;;;;;7393721;19;3780;-73
2023/12/26 04:02:07;;;;;;;;;;;19.40;57.00;;;;;;7391091;19;2078;-73
2023/12/26 04:04:33;;;;;;;;;;;19.40;56.90;;;;;;7393385;19;3868;-73
2023/12/26 04:06:58;;;;;;;;;;;19.40;56.70;;;;;;7397526;19;1351;-74
2023/12/26 04:09:24;;;;;;;;;;;19.50;56.70;;;;;;7395316;19;1396;-73
2023/12/26 04:11:49;;;;;;;;;;;19.50;56.60;;;;;;7393342;19;4025;-74
2023/12/26 04:14:15;;;;;;;;;;;19.50;56.70;;;;;;7398408;19;1444;-73
2023/12/26 04:16:40;;;;;;;;;;;19.50;56.70;;;;;;7398673;19;1494;-73
2023/12/26 04:19:06;;;;;;;;;;;19.50;56.70;;;;;;7394538;19;4105;-73
2023/12/26 04:21:31;;;;;;;;;;;19.40;57.00;;;;;;7395460;19;4806;-73
2023/12/26 04:23:56;;;;;;;;;;;19.30;57.10;;;;;;7395873;19;3939;-73
2023/12/26 04:26:22;;;;;;;;;;;19.20;57.20;;;;;;7396803;19;3220;-73
2023/12/26 04:28:47;;;;;;;;;;;19.10;57.40;;;;;;7398785;19;1604;-73
2023/12/26 04:31:13;;;;;;;;;;;19.00;57.80;;;;;;7393137;19;3135;-73
2023/12/26 04:33:38;;;;;;;;;;;18.90;58.00;;;;;;7396704;19;3189;-73
2023/12/26 04:36:05;;;;;;;;;;;18.80;58.30;;;;;;7396605;19;2466;-73
2023/12/26 04:38:31;;;;;;;;;;;18.70;58.40;;;;;;7390927;19;4395;-73
2023/12/26 04:40:56;;;;;;;;;;;18.70;58.60;;;;;;7396750;19;2552;-74
2023/12/26 04:43:22;;;;;;;;;;;18.70;58.80;;;;;;7395539;19;2144;-73
2023/12/26 04:45:47;;;;;;;;;;;18.50;58.80;;;;;;7392947;19;3022;-73
2023/12/26 04:48:13;;;;;;;;;;;18.50;58.90;;;;;;7395958;19;2795;-73
2023/12/26 04:50:38;;;;;;;;;;;18.40;58.90;;;;;;7396563;19;1730;-73
2023/12/26 04:53:07;;;;;;;;;;;18.40;59.00;;;;;;7390726;19;4387;-73
2023/12/26 04:55:32;;;;;;;;;;;18.30;59.00;;;;;;7396296;19;3145;-73
2023/12/26 04:57:58;;;;;;;;;;;18.30;59.20;;;;;;7394889;19;1802;-74
2023/12/26 05:00:23;;;;;;;;;;;18.20;59.00;;;;;;7393950;19;3573;-73
2023/12/26 05:02:49;;;;;;;;;;;18.20;59.00;;;;;;7392415;19;4546;-74
2023/12/26 05:05:14;;;;;;;;;;;18.20;58.70;;;;;;7394192;19;4562;-73
2023/12/26 05:07:40;;;;;;;;;;;18.20;58.60;;;;;;7392467;19;4275;-73
2023/12/26 05:10:05;;;;;;;;;;;18.10;58.50;;;;;;7392785;19;4458;-73
2023/12/26 05:12:31;;;;;;;;;;;18.10;58.40;;;;;;7392938;19;4770;-74
2023/12/26 05:14:56;;;;;;;;;;;18.10;58.20;;;;;;7390080;19;4617;-73
2023/12/26 05:17:22;;;;;;;;;;;18.10;58.00;;;;;;7402063;19;3399;-73
2023/12/26 05:19:48;;;;;;;;;;;18.10;57.90;;;;;;7400255;19;4364;-74
2023/12/26 05:22:13;;;;;;;;;;;18.10;57.60;;;;;;7398590;19;4796;-73
2023/12/26 05:24:39;;;;;;;;;;;18.20;57.40;;;;;;7407165;19;1488;-73
2023/12/26 05:27:04;;;;;;;;;;;18.20;57.00;;;;;;7405512;19;1854;-73
2023/12/26 05:29:29;;;;;;;;;;;18.30;56.70;;;;;;7404543;19;2912;-73
2023/12/26 05:31:55;;;;;;;;;;;18.30;56.50;;;;;;7404038;19;1970;-73
2023/12/26 05:34:20;;;;;;;;;;;18.30;57.00;;;;;;7401919;19;1591;-73
2023/12/26 05:36:46;;;;;;;;;;;18.40;56.20;;;;;;7399648;19;3132;-73
2023/12/26 05:39:11;;;;;;;;;;;18.40;56.10;;;;;;7402133;19;1514;-73
2023/12/26 05:41:40;;;;;;;;;;;18.40;56.10;;;;;;7399549;19;1841;-73
2023/12/26 05:44:05;;;;;;;;;;;18.40;55.90;;;;;;7399713;19;2772;-74
2023/12/26 05:46:31;;;;;;;;;;;18.40;55.80;;;;;;7398880;19;3695;-73
2023/12/26 05:48:56;;;;;;;;;;;18.40;55.80;;;;;;7401995;19;1484;-73
2023/12/26 05:51:22;;;;;;;;;;;18.40;55.70;;;;;;7398637;19;3075;-73
2023/12/26 05:53:48;;;;;;;;;;;18.40;55.70;;;;;;7401421;19;1454;-73
2023/12/26 05:56:13;;;;;;;;;;;18.40;55.70;;;;;;7400806;19;1110;-73
2023/12/26 05:58:39;;;;;;;;;;;18.40;55.70;;;;;;7400004;19;2802;-73
2023/12/26 06:01:08;;;;;;;;;;;18.40;55.70;;;;;;7396213;19;4275;-73
2023/12/26 06:03:33;;;;;;;;;;;18.40;55.70;;;;;;7402245;19;3307;-73
2023/12/26 06:05:59;;;;;;;;;;;18.40;55.80;;;;;;7399966;19;2812;-73
2023/12/26 06:08:25;;;;;;;;;;;18.30;55.70;;;;;;7400256;19;1352;-74
2023/12/26 06:10:51;;;;;;;;;;;18.30;55.70;;;;;;7401675;19;1410;-73
2023/12/26 06:13:16;;;;;;;;;;;18.30;55.70;;;;;;7396671;19;2733;-73
2023/12/26 06:15:42;;;;;;;;;;;18.30;55.60;;;;;;7397953;19;4572;-73
2023/12/26 06:18:07;;;;;;;;;;;18.30;55.60;;;;;;7400905;19;3392;-73
2023/12/26 06:20:33;;;;;;;;;;;18.30;55.70;;;;;;7395625;19;4453;-74
2023/12/26 06:22:58;;;;;;;;;;;18.30;55.60;;;;;;7401458;19;1723;-74
2023/12/26 06:25:23;;;;;;;;;;;18.30;55.50;;;;;;7398323;19;3365;-73
2023/12/26 06:27:49;;;;;;;;;;;18.30;55.40;;;;;;7395767;19;3438;-73
2023/12/26 06:30:14;;;;;;;;;;;18.30;55.30;;;;;;7401228;19;1528;-73
2023/12/26 06:32:40;;;;;;;;;;;18.30;55.20;;;;;;7400289;19;1429;-73
2023/12/26 06:35:05;;;;;;;;;;;18.30;55.20;;;;;;7398631;19;3662;-74
2023/12/26 06:37:31;;;;;;;;;;;18.20;55.00;;;;;;7399069;19;1361;-73
2023/12/26 06:39:56;;;;;;;;;;;18.20;55.10;;;;;;7399467;19;1310;-73
2023/12/26 06:42:22;;;;;;;;;;;18.20;55.10;;;;;;7396436;19;2884;-74
2023/12/26 06:44:47;;;;;;;;;;;18.20;55.10;;;;;;7401116;19;1557;-73
2023/12/26 06:47:13;;;;;;;;;;;18.20;55.30;;;;;;7398728;19;1320;-73
2023/12/26 06:49:45;;;;;;;;;;;18.20;55.20;;;;;;7398899;19;3684;-73
2023/12/26 06:52:14;;;;;;;;;;;18.20;55.00;;;;;;7401083;19;1318;-73
2023/12/26 06:54:40;;;;;;;;;;;18.20;55.00;;;;;;7400503;19;1537;-73
2023/12/26 06:57:08;;;;;;;;;;;18.20;54.80;;;;;;7399826;19;2750;-73
2023/12/26 06:59:34;;;;;;;;;;;18.20;54.70;;;;;;7397832;19;1695;-73
2023/12/26 07:01:59;;;;;;;;;;;18.20;54.80;;;;;;7395678;19;3369;-73
2023/12/26 07:04:24;;;;;;;;;;;18.20;54.80;;;;;;7395618;19;4658;-73
2023/12/26 07:06:50;;;;;;;;;;;18.20;54.70;;;;;;7395249;19;4564;-73
2023/12/26 07:09:15;;;;;;;;;;;18.20;54.80;;;;;;7398806;19;3042;-73
2023/12/26 07:11:41;;;;;;;;;;;18.10;54.90;;;;;;7397042;19;3526;-73
2023/12/26 07:14:06;;;;;;;;;;;18.10;55.00;;;;;;7398861;19;1404;-73
2023/12/26 07:16:33;;;;;;;;;;;18.00;55.10;;;;;;7396621;19;2809;-73
2023/12/26 07:18:58;;;;;;;;;;;18.10;55.00;;;;;;7393518;19;4335;-73
2023/12/26 07:21:24;;;;;;;;;;;18.00;55.10;;;;;;7396368;19;4396;-73
2023/12/26 07:23:49;;;;;;;;;;;18.00;55.10;;;;;;7397173;19;3093;-73
2023/12/26 07:26:15;;;;;;;;;;;18.00;55.00;;;;;;7396414;19;3107;-73
2023/12/26 07:28:40;;;;;;;;;;;17.90;55.00;;;;;;7399412;19;2872;-73
2023/12/26 07:31:06;;;;;;;;;;;17.90;55.10;;;;;;7396839;19;1382;-73
2023/12/26 07:33:31;;;;;;;;;;;17.90;55.10;;;;;;7396328;19;3421;-73
2023/12/26 07:35:57;;;;;;;;;;;17.90;55.10;;;;;;7397475;19;1338;-73
2023/12/26 07:38:24;;;;;;;;;;;17.90;54.90;;;;;;7398379;19;1413;-73
2023/12/26 07:40:50;;;;;;;;;;;17.90;54.80;;;;;;7395255;19;3376;-73
2023/12/26 07:43:15;;;;;;;;;;;18.00;54.70;;;;;;7395217;19;1528;-73
2023/12/26 07:45:44;;;;;;;;;;;18.00;54.60;;;;;;7390599;19;4413;-74
2023/12/26 07:48:13;;;;;;;;;;;18.10;54.40;;;;;;7394684;19;2887;-73
2023/12/26 07:50:39;;;;;;;;;;;18.10;54.30;;;;;;7397634;19;1458;-73
2023/12/26 07:53:04;;;;;;;;;;;18.10;54.20;;;;;;7394682;19;5877;-73
2023/12/26 07:55:32;;;;;;;;;;;18.10;54.10;;;;;;7396443;19;4293;-73
2023/12/26 07:57:57;;;;;;;;;;;18.10;54.00;;;;;;7398075;19;1192;-73
2023/12/26 08:00:23;;;;;;;;;;;18.10;53.90;;;;;;7396390;19;3329;-73
2023/12/26 08:02:48;;;;;;;;;;;18.10;54.00;;;;;;7398881;19;1305;-73
2023/12/26 08:05:14;;;;;;;;;;;18.10;53.90;;;;;;7398226;19;3371;-73
2023/12/26 08:07:39;;;;;;;;;;;18.10;53.80;;;;;;7393662;19;3262;-73
2023/12/26 08:10:05;;;;;;;;;;;18.10;53.80;;;;;;7389505;19;4407;-73
2023/12/26 08:12:30;;;;;;;;;;;18.00;53.80;;;;;;7396027;19;3026;-74
2023/12/26 08:14:55;;;;;;;;;;;18.10;53.80;;;;;;7395510;19;1853;-73
2023/12/26 08:17:21;;;;;;;;;;;18.10;53.90;;;;;;7392333;19;4504;-73
2023/12/26 08:19:46;;;;;;;;;;;18.00;53.80;;;;;;7393751;19;5980;-73
2023/12/26 08:22:12;;;;;;;;;;;18.10;53.90;;;;;;7390144;19;4428;-73
2023/12/26 08:24:37;;;;;;;;;;;18.00;53.70;;;;;;7396653;19;2749;-73
2023/12/26 08:27:03;;;;;;;;;;;18.00;53.70;;;;;;7395303;19;1478;-73
2023/12/26 08:29:28;;;;;;;;;;;18.00;53.70;;;;;;7394923;19;3301;-73
2023/12/26 08:31:53;;;;;;;;;;;18.00;53.60;;;;;;7395715;19;2985;-73
2023/12/26 08:34:19;;;;;;;;;;;18.00;53.60;;;;;;7393349;19;5993;-73
2023/12/26 08:36:45;;;;;;;;;;;18.00;53.50;;;;;;7395668;19;3976;-73
2023/12/26 08:39:10;;;;;;;;;;;18.00;53.60;;;;;;7394415;19;4038;-72
2023/12/26 08:41:35;;;;;;;;;;;18.00;53.40;;;;;;7395208;19;1857;-72
2023/12/26 08:44:01;;;;;;;;;;;18.00;53.40;;;;;;7393866;19;2967;-73
2023/12/26 08:46:26;;;;;;;;;;;18.00;53.40;;;;;;7396358;19;3231;-73
2023/12/26 08:48:52;;;;;;;;;;;18.00;53.40;;;;;;7395918;19;1460;-73
2023/12/26 08:51:19;;;;;;;;;;;18.00;53.30;;;;;;7390295;19;4338;-73
2023/12/26 08:53:45;;;;;;;;;;;18.00;53.40;;;;;;7395745;19;3272;-73
2023/12/26 08:56:11;;;;;;;;;;;17.90;53.50;;;;;;7394383;19;1908;-73
2023/12/26 08:58:37;;;;;;;;;;;17.90;53.60;;;;;;7394435;19;3154;-73
2023/12/26 09:01:02;;;;;;;;;;;17.90;53.70;;;;;;7396391;19;2714;-73
2023/12/26 09:03:28;;;;;;;;;;;17.90;53.50;;;;;;7394087;19;1568;-73
2023/12/26 09:05:53;;;;;;;;;;;17.90;53.60;;;;;;7391900;19;3892;-73
2023/12/26 09:08:19;;;;;;;;;;;17.90;53.80;;;;;;7395252;19;3239;-73
2023/12/26 09:10:44;;;;;;;;;;;17.90;53.70;;;;;;7397436;19;1333;-73
2023/12/26 09:13:10;;;;;;;;;;;17.90;53.70;;;;;;7393534;19;2845;-73
2023/12/26 09:15:35;;;;;;;;;;;17.90;53.60;;;;;;7395908;19;3136;-73
2023/12/26 09:18:01;;;;;;;;;;;17.80;53.60;;;;;;7391687;19;4210;-73
2023/12/26 09:20:26;;;;;;;;;;;17.80;53.60;;;;;;7389289;19;5171;-73
2023/12/26 09:22:52;;;;;;;;;;;17.80;53.60;;;;;;7395023;19;2872;-73
2023/12/26 09:25:17;;;;;;;;;;;17.90;53.70;;;;;;7395884;19;1276;-73
2023/12/26 09:27:43;;;;;;;;;;;17.90;53.60;;;;;;7393106;19;3018;-73
2023/12/26 09:30:09;;;;;;;;;;;17.90;53.50;;;;;;7395304;19;3215;-73
2023/12/26 09:32:34;;;;;;;;;;;17.90;53.40;;;;;;7396798;19;1468;-73
2023/12/26 09:35:00;;;;;;;;;;;18.00;53.40;;;;;;7393541;19;3113;-73
2023/12/26 09:37:25;;;;;;;;;;;18.00;53.40;;;;;;7395445;19;1296;-73
2023/12/26 09:39:50;;;;;;;;;;;18.10;53.40;;;;;;7396188;19;1811;-73
2023/12/26 09:42:17;;;;;;;;;;;18.10;53.40;;;;;;7389061;19;4626;-73
2023/12/26 09:44:42;;;;;;;;;;;18.10;53.40;;;;;;7392187;19;4451;-73
2023/12/26 09:47:08;;;;;;;;;;;18.10;53.30;;;;;;7393913;19;4518;-73
2023/12/26 09:49:33;;;;;;;;;;;18.00;53.10;;;;;;7390544;19;4484;-73
2023/12/26 09:51:59;;;;;;;;;;;18.10;53.30;;;;;;7391759;19;5607;-73
2023/12/26 09:54:26;;;;;;;;;;;18.00;53.20;;;;;;7391611;19;3293;-73
2023/12/26 09:56:51;;;;;;;;;;;18.00;53.20;;;;;;7392693;19;3470;-73
2023/12/26 09:59:17;;;;;;;;;;;18.10;53.40;;;;;;7394762;19;1670;-73
2023/12/26 10:01:44;;;;;;;;;;;18.10;53.40;;;;;;7392052;19;1852;-73
2023/12/26 10:04:09;;;;;;;;;;;18.00;53.30;;;;;;7398075;19;3532;-73
2023/12/26 10:06:35;;;;;;;;;;;18.00;53.40;;;;;;7397478;19;3953;-73
2023/12/26 10:09:00;;;;;;;;;;;18.00;53.40;;;;;;7396794;19;1304;-73
2023/12/26 10:11:27;;;;;;;;;;;18.00;53.30;;;;;;7398919;19;2842;-73
2023/12/26 10:13:53;;;;;;;;;;;18.00;54.00;;;;;;7399283;19;2252;-73
2023/12/26 10:16:18;;;;;;;;;;;18.00;53.30;;;;;;7397427;19;2386;-73
2023/12/26 10:18:44;;;;;;;;;;;18.00;53.30;;;;;;7395962;19;3572;-73
2023/12/26 10:21:09;;;;;;;;;;;17.90;53.20;;;;;;7397774;19;4447;-73
2023/12/26 10:23:34;;;;;;;;;;;18.00;53.30;;;;;;7401054;19;2971;-73
2023/12/26 10:26:01;;;;;;;;;;;17.90;53.20;;;;;;7397570;19;6030;-73
2023/12/26 10:28:27;;;;;;;;;;;17.90;53.20;;;;;;7397146;19;4853;-73
2023/12/26 10:30:52;;;;;;;;;;;17.90;53.30;;;;;;7395509;19;4417;-73
2023/12/26 10:33:27;;;;;;;;;;;17.90;53.30;;;;;;7395120;19;4243;-73
2023/12/26 10:36:02;;;;;;;;;;;17.90;53.20;;;;;;7399260;19;3131;-73
2023/12/26 10:38:27;;;;;;;;;;;17.90;53.20;;;;;;7400105;19;1767;-73
2023/12/26 10:40:54;;;;;;;;;;;17.90;53.30;;;;;;7396889;19;3899;-72
2023/12/26 10:43:19;;;;;;;;;;;17.90;53.30;;;;;;7393723;19;4650;-73
2023/12/26 10:45:44;;;;;;;;;;;18.10;53.40;;;;;;7399411;19;3529;-73
2023/12/26 10:48:10;;;;;;;;;;;18.20;53.00;;;;;;7395752;19;4446;-73
2023/12/26 10:50:35;;;;;;;;;;;18.40;52.90;;;;;;7400745;19;1415;-73
2023/12/26 10:53:01;;;;;;;;;;;18.50;52.60;;;;;;7398192;19;3101;-73
2023/12/26 10:55:26;;;;;;;;;;;18.50;52.70;;;;;;7397776;19;3945;-73
2023/12/26 10:57:52;;;;;;;;;;;18.50;52.70;;;;;;7398399;19;1569;-73
2023/12/26 11:00:17;;;;;;;;;;;18.50;52.80;;;;;;7398508;19;1710;-74
2023/12/26 11:02:42;;;;;;;;;;;18.60;52.80;;;;;;7394024;19;2881;-73
2023/12/26 11:05:08;;;;;;;;;;;18.70;52.90;;;;;;7390391;19;4298;-73
2023/12/26 11:07:33;;;;;;;;;;;18.70;52.80;;;;;;7396095;19;3046;-74
2023/12/26 11:09:59;;;;;;;;;;;18.80;52.70;;;;;;7396964;19;1133;-73
2023/12/26 11:12:24;;;;;;;;;;;18.80;52.60;;;;;;7396364;19;3401;-72
2023/12/26 11:14:50;;;;;;;;;;;18.80;52.70;;;;;;7394936;19;2804;-73
2023/12/26 11:17:15;;;;;;;;;;;18.80;52.60;;;;;;7394951;19;4331;-73
2023/12/26 11:19:40;;;;;;;;;;;18.90;52.70;;;;;;7395274;19;4146;-73
2023/12/26 11:22:06;;;;;;;;;;;18.90;52.70;;;;;;7392821;19;4424;-73
2023/12/26 11:24:31;;;;;;;;;;;19.00;52.80;;;;;;7396600;19;5261;-74
2023/12/26 11:26:57;;;;;;;;;;;19.00;52.80;;;;;;7396518;19;2579;-74
2023/12/26 11:29:22;;;;;;;;;;;19.10;52.70;;;;;;7397226;19;2714;-74
2023/12/26 11:31:47;;;;;;;;;;;19.40;52.30;;;;;;7395051;19;2884;-74
2023/12/26 11:34:13;;;;;;;;;;;20.10;51.40;;;;;;7396578;19;2830;-74
2023/12/26 11:36:39;;;;;;;;;;;20.60;50.30;;;;;;7397788;19;1595;-74
2023/12/26 11:39:04;;;;;;;;;;;20.90;49.70;;;;;;7392353;19;4239;-74
2023/12/26 11:41:30;;;;;;;;;;;21.10;49.10;;;;;;7395191;19;4652;-74
2023/12/26 11:43:55;;;;;;;;;;;21.30;48.80;;;;;;7397790;19;1524;-74
2023/12/26 11:46:20;;;;;;;;;;;21.40;48.80;;;;;;7391868;19;2876;-74
2023/12/26 11:48:46;;;;;;;;;;;21.50;48.60;;;;;;7393021;19;4398;-74
2023/12/26 11:51:11;;;;;;;;;;;21.60;48.40;;;;;;7396832;19;2750;-75
2023/12/26 11:53:37;;;;;;;;;;;21.80;48.30;;;;;;7393348;19;3633;-75
2023/12/26 11:56:02;;;;;;;;;;;21.80;48.10;;;;;;7397552;19;1538;-75
2023/12/26 11:58:27;;;;;;;;;;;21.90;48.10;;;;;;7397132;19;1727;-74
2023/12/26 12:00:53;;;;;;;;;;;21.90;48.00;;;;;;7394421;19;3035;-75
2023/12/26 12:03:18;;;;;;;;;;;21.90;48.10;;;;;;7393653;19;4420;-74
2023/12/26 12:05:44;;;;;;;;;;;21.90;48.10;;;;;;7396811;19;3064;-74
2023/12/26 12:08:12;;;;;;;;;;;21.90;48.30;;;;;;7387775;19;4496;-74
2023/12/26 12:10:58;;;;;;;;;;;21.80;48.40;;;;;;7398049;19;1802;-74
2023/12/26 12:13:23;;;;;;;;;;;21.80;48.30;;;;;;7396200;19;1089;-74
2023/12/26 12:15:49;;;;;;;;;;;21.80;48.60;;;;;;7390012;19;4451;-74
2023/12/26 12:18:18;;;;;;;;;;;21.60;48.90;;;;;;7389252;19;4292;-74
2023/12/26 12:20:44;;;;;;;;;;;21.50;49.20;;;;;;7390933;19;4406;-74
2023/12/26 12:23:09;;;;;;;;;;;21.30;49.40;;;;;;7392331;19;4468;-75
2023/12/26 12:25:35;;;;;;;;;;;21.20;49.60;;;;;;7392314;19;2876;-74
2023/12/26 12:28:07;;;;;;;;;;;21.10;49.90;;;;;;7395400;19;1554;-75
2023/12/26 12:30:33;;;;;;;;;;;21.10;50.10;;;;;;7398509;19;3084;-74
2023/12/26 12:33:17;;;;;;;;;;;21.20;50.00;;;;;;7396843;19;1538;-75
2023/12/26 12:35:46;;;;;;;;;;;21.40;49.70;;;;;;7393130;19;4078;-74
2023/12/26 12:38:11;;;;;;;;;;;21.50;49.30;;;;;;7395269;19;3121;-75
2023/12/26 12:40:37;;;;;;;;;;;21.80;49.00;;;;;;7397471;19;2002;-75
2023/12/26 12:43:02;;;;;;;;;;;21.80;48.70;;;;;;7390512;19;4291;-74
2023/12/26 12:45:28;;;;;;;;;;;21.80;48.80;;;;;;7396819;19;3774;-75
2023/12/26 12:47:53;;;;;;;;;;;21.70;49.00;;;;;;7395540;19;1590;-75
2023/12/26 12:50:18;;;;;;;;;;;21.70;48.80;;;;;;7393231;19;4891;-75
2023/12/26 12:52:44;;;;;;;;;;;21.80;48.70;;;;;;7384363;19;5816;-74
2023/12/26 12:55:10;;;;;;;;;;;21.90;49.30;;;;;;7393841;19;3133;-75
2023/12/26 12:57:35;;;;;;;;;;;22.00;48.70;;;;;;7391994;19;4401;-75
2023/12/26 13:00:01;;;;;;;;;;;22.00;48.50;;;;;;7392192;19;4915;-74
2023/12/26 13:02:26;;;;;;;;;;;22.10;48.50;;;;;;7393089;19;1856;-75
2023/12/26 13:04:52;;;;;;;;;;;22.20;48.50;;;;;;7394780;19;2716;-74
2023/12/26 13:07:17;;;;;;;;;;;22.20;48.30;;;;;;7394855;19;1415;-74
2023/12/26 13:09:42;;;;;;;;;;;22.20;48.30;;;;;;7392566;19;2316;-75
2023/12/26 13:12:08;;;;;;;;;;;22.20;48.30;;;;;;7392198;19;3624;-75
2023/12/26 13:14:34;;;;;;;;;;;22.20;48.30;;;;;;7396238;19;1585;-75
2023/12/26 13:17:00;;;;;;;;;;;22.20;48.40;;;;;;7379600;19;4991;-74
2023/12/26 13:19:26;;;;;;;;;;;22.20;48.50;;;;;;7388911;19;2729;-74
2023/12/26 13:21:51;;;;;;;;;;;22.20;48.50;;;;;;7391633;19;1854;-74
2023/12/26 13:24:23;;;;;;;;;;;22.20;48.50;;;;;;7395208;19;2753;-75
2023/12/26 13:26:48;;;;;;;;;;;22.40;49.00;;;;;;7391314;19;2775;-75
2023/12/26 13:29:23;;;;;;;;;;;22.30;48.40;;;;;;7395669;19;2086;-75
2023/12/26 13:31:48;;;;;;;;;;;22.40;48.50;;;;;;7391880;19;3007;-75
2023/12/26 13:34:14;;;;;;;;;;;22.40;48.60;;;;;;7384545;19;6212;-74
2023/12/26 13:36:39;;;;;;;;;;;22.50;48.60;;;;;;7392805;19;1827;-74
2023/12/26 13:39:05;;;;;;;;;;;22.50;48.60;;;;;;7399167;19;1557;-75
2023/12/26 13:41:30;;;;;;;;;;;22.40;48.70;;;;;;7395705;19;3343;-75
2023/12/26 13:43:55;;;;;;;;;;;22.40;48.80;;;;;;7399289;19;2128;-74
2023/12/26 13:46:21;;;;;;;;;;;22.30;49.00;;;;;;7402264;19;1641;-75
2023/12/26 13:48:46;;;;;;;;;;;22.30;49.10;;;;;;7399821;19;3908;-75
2023/12/26 13:51:12;;;;;;;;;;;22.30;49.30;;;;;;7399655;19;2967;-75
2023/12/26 13:53:37;;;;;;;;;;;22.30;49.30;;;;;;7399843;19;1354;-75
2023/12/26 13:56:03;;;;;;;;;;;22.40;49.20;;;;;;7399317;19;2830;-75
2023/12/26 13:58:28;;;;;;;;;;;22.40;49.20;;;;;;7400183;19;1845;-74
2023/12/26 14:00:53;;;;;;;;;;;22.50;49.10;;;;;;7398520;19;1953;-74
2023/12/26 14:03:19;;;;;;;;;;;22.50;49.10;;;;;;7395368;19;3388;-74
2023/12/26 14:05:44;;;;;;;;;;;22.60;49.00;;;;;;7396083;19;4460;-74
2023/12/26 14:08:10;;;;;;;;;;;22.60;48.90;;;;;;7394373;19;4135;-74
2023/12/26 14:10:35;;;;;;;;;;;22.50;49.00;;;;;;7398958;19;2826;-74
2023/12/26 14:13:01;;;;;;;;;;;22.50;49.30;;;;;;7397879;19;1430;-74
2023/12/26 14:15:26;;;;;;;;;;;22.60;49.30;;;;;;7398786;19;1517;-75
2023/12/26 14:17:51;;;;;;;;;;;22.60;49.10;;;;;;7395041;19;3129;-75
2023/12/26 14:20:17;;;;;;;;;;;22.60;49.60;;;;;;7401506;19;1964;-74
2023/12/26 14:22:42;;;;;;;;;;;22.60;48.90;;;;;;7397130;19;3107;-75